createdAt,value
2023-04-09T00:01:38.612Z,6.90
2023-04-09T00:04:05.158Z,6.40
2023-04-09T00:06:31.703Z,6.20
2023-04-09T00:08:58.009Z,6.40
2023-04-09T00:11:25.028Z,7.00
2023-04-09T00:13:51.347Z,6.60
2023-04-09T00:16:17.874Z,6.60
2023-04-09T00:18:44.183Z,6.30
2023-04-09T00:21:10.603Z,7.30
2023-04-09T00:23:37.091Z,7.20
2023-04-09T00:26:03.563Z,6.10
2023-04-09T00:28:29.845Z,7.30
2023-04-09T00:30:56.633Z,6.20
2023-04-09T00:33:22.999Z,5.90
2023-04-09T00:35:49.332Z,6.70
2023-04-09T00:38:15.793Z,7.40
2023-04-09T00:40:42.159Z,6.90
2023-04-09T00:43:08.902Z,5.90
2023-04-09T00:45:35.769Z,7.10
2023-04-09T00:48:02.227Z,6.70
2023-04-09T00:50:28.649Z,5.70
2023-04-09T00:52:55.539Z,7.00
2023-04-09T00:55:21.891Z,6.80
2023-04-09T00:57:48.411Z,6.30
2023-04-09T01:00:15.060Z,5.50
2023-04-09T01:02:42.421Z,6.20
2023-04-09T01:05:10.814Z,6.60
2023-04-09T01:07:55.542Z,6.30
2023-04-09T01:10:25.093Z,5.60
2023-04-09T01:13:03.590Z,5.30
2023-04-09T01:15:33.585Z,7.50
2023-04-09T01:18:07.094Z,6.10
2023-04-09T01:20:44.486Z,6.20
2023-04-09T01:23:19.210Z,6.50
2023-04-09T01:26:04.028Z,6.60
2023-04-09T01:28:46.917Z,6.30
2023-04-09T01:31:16.522Z,7.30
2023-04-09T01:36:10.721Z,5.20
2023-04-09T01:38:40.564Z,7.00
2023-04-09T01:41:10.902Z,7.30
2023-04-09T01:43:37.904Z,7.30
2023-04-09T01:46:04.407Z,6.80
2023-04-09T01:48:32.450Z,7.30
2023-04-09T01:50:59.189Z,6.50
2023-04-09T01:53:28.600Z,5.10
2023-04-09T01:55:58.120Z,6.40
2023-04-09T01:58:25.898Z,6.80
2023-04-09T02:00:58.136Z,5.70
2023-04-09T02:03:30.665Z,7.10
2023-04-09T02:06:07.217Z,7.10
2023-04-09T02:08:34.782Z,6.20
2023-04-09T02:11:10.007Z,6.70
2023-04-09T02:13:37.424Z,7.00
2023-04-09T02:16:05.296Z,6.40
2023-04-09T02:18:32.018Z,6.10
2023-04-09T02:20:59.073Z,5.90
2023-04-09T02:23:26.729Z,6.40
2023-04-09T02:25:53.727Z,5.70
2023-04-09T02:28:20.230Z,6.50
2023-04-09T02:30:46.696Z,7.90
2023-04-09T02:33:13.332Z,7.70
2023-04-09T02:35:40.346Z,6.40
2023-04-09T02:38:12.964Z,7.20
2023-04-09T02:40:40.627Z,6.10
2023-04-09T02:43:07.998Z,7.00
2023-04-09T02:45:34.611Z,7.50
2023-04-09T02:48:01.331Z,7.10
2023-04-09T02:50:29.471Z,7.50
2023-04-09T02:52:56.076Z,7.70
2023-04-09T02:55:22.477Z,7.40
2023-04-09T02:57:48.896Z,7.90
2023-04-09T03:00:15.247Z,7.70
2023-04-09T03:02:42.057Z,7.20
2023-04-09T03:05:08.821Z,7.50
2023-04-09T03:07:35.261Z,7.20
2023-04-09T03:10:01.710Z,7.40
2023-04-09T03:12:28.067Z,6.70
2023-04-09T03:14:54.871Z,7.60
2023-04-09T03:17:21.316Z,6.90
2023-04-09T03:19:47.666Z,5.90
2023-04-09T03:22:15.722Z,6.20
2023-04-09T03:24:42.467Z,6.10
2023-04-09T03:27:08.793Z,7.50
2023-04-09T03:29:35.385Z,7.20
2023-04-09T03:32:01.901Z,7.00
2023-04-09T03:34:28.414Z,7.90
2023-04-09T03:36:56.134Z,8.30
2023-04-09T03:41:52.499Z,7.30
2023-04-09T03:44:18.800Z,8.10
2023-04-09T03:47:14.782Z,8.20
2023-04-09T03:49:41.282Z,8.90
2023-04-09T03:52:18.262Z,8.50
2023-04-09T03:54:47.548Z,7.40
2023-04-09T03:57:17.795Z,6.60
2023-04-09T03:59:45.356Z,7.00
2023-04-09T04:02:12.341Z,7.00
2023-04-09T04:04:41.772Z,7.80
2023-04-09T04:07:09.502Z,8.40
2023-04-09T04:09:40.577Z,7.40
2023-04-09T04:12:10.599Z,8.30
2023-04-09T04:14:45.013Z,8.40
2023-04-09T04:17:22.664Z,7.00
2023-04-09T04:19:49.543Z,8.20
2023-04-09T04:22:15.870Z,9.10
2023-04-09T04:24:44.539Z,9.70
2023-04-09T04:27:14.600Z,9.20
2023-04-09T04:29:40.980Z,8.40
2023-04-09T04:32:20.544Z,8.00
2023-04-09T04:34:49.408Z,7.90
2023-04-09T04:37:21.035Z,8.90
2023-04-09T04:39:48.263Z,8.30
2023-04-09T04:42:16.596Z,7.10
2023-04-09T04:44:44.333Z,7.90
2023-04-09T04:47:15.742Z,8.40
2023-04-09T04:49:42.253Z,7.40
2023-04-09T04:52:08.998Z,8.60
2023-04-09T04:54:35.846Z,7.60
2023-04-09T04:57:02.821Z,8.30
2023-04-09T04:59:40.509Z,7.50
2023-04-09T05:02:09.316Z,5.90
2023-04-09T05:04:47.768Z,9.70
2023-04-09T05:07:15.486Z,7.00
2023-04-09T05:09:47.821Z,7.00
2023-04-09T05:12:17.251Z,6.80
2023-04-09T05:14:45.006Z,7.80
2023-04-09T05:17:11.472Z,8.30
2023-04-09T05:19:43.024Z,7.70
2023-04-09T05:22:10.195Z,7.80
2023-04-09T05:24:36.576Z,7.00
2023-04-09T05:27:03.046Z,7.60
2023-04-09T05:29:29.654Z,8.30
2023-04-09T05:31:56.014Z,8.40
2023-04-09T05:34:35.073Z,8.00
2023-04-09T05:37:01.529Z,5.80
2023-04-09T05:39:27.832Z,8.60
2023-04-09T05:41:55.501Z,6.40
2023-04-09T05:44:21.988Z,7.00
2023-04-09T05:46:49.104Z,8.40
2023-04-09T05:49:17.771Z,8.80
2023-04-09T05:51:45.859Z,8.30
2023-04-09T05:54:14.286Z,8.70
2023-04-09T05:56:42.623Z,7.60
2023-04-09T05:59:09.048Z,7.50
2023-04-09T06:01:35.561Z,7.90
2023-04-09T06:04:03.731Z,7.70
2023-04-09T06:06:30.462Z,7.10
2023-04-09T06:08:56.772Z,7.60
2023-04-09T06:11:23.082Z,7.10
2023-04-09T06:13:49.468Z,6.60
2023-04-09T06:16:16.229Z,5.70
2023-04-09T06:18:42.625Z,7.20
2023-04-09T06:21:09.030Z,6.40
2023-04-09T06:23:36.147Z,5.70
2023-04-09T06:26:02.643Z,4.30
2023-04-09T06:28:29.442Z,5.70
2023-04-09T06:30:55.838Z,43.90
2023-04-09T06:33:22.345Z,24.80
2023-04-09T06:35:48.939Z,8.40
2023-04-09T06:38:15.956Z,5.80
2023-04-09T06:40:42.844Z,6.70
2023-04-09T06:43:09.938Z,7.50
2023-04-09T06:45:41.958Z,8.10
2023-04-09T06:48:08.556Z,6.40
2023-04-09T06:50:35.268Z,16.50
2023-04-09T06:53:01.821Z,11.20
2023-04-09T06:55:28.620Z,12.10
2023-04-09T06:57:55.263Z,24.50
2023-04-09T07:00:22.470Z,21.70
2023-04-09T07:02:49.979Z,19.20
2023-04-09T07:05:16.542Z,7.40
2023-04-09T07:07:42.982Z,15.40
2023-04-09T07:10:09.492Z,6.00
2023-04-09T07:12:35.915Z,5.10
2023-04-09T07:15:05.069Z,4.50
2023-04-09T07:17:31.865Z,4.20
2023-04-09T07:19:58.214Z,5.90
2023-04-09T07:22:26.685Z,4.10
2023-04-09T07:24:54.452Z,4.80
2023-04-09T07:27:22.590Z,6.00
2023-04-09T07:29:49.157Z,3.30
2023-04-09T07:32:16.134Z,4.60
2023-04-09T07:34:43.787Z,5.00
2023-04-09T07:37:10.763Z,4.50
2023-04-09T07:39:37.213Z,4.70
2023-04-09T07:42:04.670Z,5.00
2023-04-09T07:44:35.786Z,10.40
2023-04-09T07:47:03.471Z,5.40
2023-04-09T07:49:30.045Z,5.50
2023-04-09T07:51:57.103Z,4.70
2023-04-09T07:54:24.448Z,4.60
2023-04-09T07:56:51.251Z,4.90
2023-04-09T07:59:17.642Z,5.50
2023-04-09T08:01:44.280Z,5.30
2023-04-09T08:04:12.277Z,4.20
2023-04-09T08:06:38.894Z,4.10
2023-04-09T08:09:05.697Z,3.20
2023-04-09T08:11:32.678Z,7.40
2023-04-09T08:14:02.197Z,4.10
2023-04-09T08:16:29.544Z,5.00
2023-04-09T08:18:56.911Z,4.80
2023-04-09T08:21:23.663Z,7.50
2023-04-09T08:23:50.534Z,7.10
2023-04-09T08:26:17.248Z,15.70
2023-04-09T08:28:43.583Z,9.50
2023-04-09T08:31:09.911Z,5.80
2023-04-09T08:33:36.288Z,6.90
2023-04-09T08:36:07.721Z,9.40
2023-04-09T08:38:34.118Z,5.80
2023-04-09T08:41:00.466Z,5.50
2023-04-09T08:43:42.012Z,8.70
2023-04-09T08:46:18.261Z,7.00
2023-04-09T08:48:46.242Z,4.00
2023-04-09T08:51:17.041Z,3.80
2023-04-09T08:53:49.751Z,5.50
2023-04-09T08:56:16.351Z,5.40
2023-04-09T08:58:44.112Z,5.20
2023-04-09T09:01:27.924Z,5.90
2023-04-09T09:03:58.348Z,4.80
2023-04-09T09:06:31.983Z,4.90
2023-04-09T09:09:15.668Z,6.00
2023-04-09T09:11:44.251Z,5.40
2023-04-09T09:14:12.950Z,5.60
2023-04-09T09:16:44.347Z,9.90
2023-04-09T09:19:26.309Z,9.20
2023-04-09T09:21:59.816Z,5.40
2023-04-09T09:24:26.843Z,5.70
2023-04-09T09:26:53.899Z,6.30
2023-04-09T09:29:20.642Z,7.70
2023-04-09T09:31:52.174Z,15.10
2023-04-09T09:34:24.122Z,11.70
2023-04-09T09:36:50.559Z,19.60
2023-04-09T09:39:17.126Z,38.90
2023-04-09T09:41:45.305Z,15.20
2023-04-09T09:44:30.615Z,8.30
2023-04-09T09:46:58.254Z,6.20
2023-04-09T09:49:24.654Z,7.10
2023-04-09T09:51:55.923Z,12.00
2023-04-09T09:54:25.697Z,8.70
2023-04-09T09:56:57.424Z,8.30
2023-04-09T09:59:29.890Z,6.40
2023-04-09T10:02:00.680Z,13.00
2023-04-09T10:04:30.814Z,7.30
2023-04-09T10:06:57.493Z,8.20
2023-04-09T10:09:27.314Z,7.60
2023-04-09T10:11:57.288Z,5.70
2023-04-09T10:14:25.647Z,7.10
2023-04-09T10:16:52.714Z,4.80
2023-04-09T10:19:20.056Z,5.00
2023-04-09T10:22:01.957Z,5.70
2023-04-09T10:24:28.495Z,6.40
2023-04-09T10:26:57.610Z,9.30
2023-04-09T10:29:28.464Z,4.70
2023-04-09T10:32:06.386Z,7.80
2023-04-09T10:34:42.229Z,5.50
2023-04-09T10:37:14.192Z,5.30
2023-04-09T10:39:44.969Z,6.70
2023-04-09T10:42:15.517Z,4.30
2023-04-09T10:44:42.260Z,4.30
2023-04-09T10:47:09.549Z,5.00
2023-04-09T10:49:40.576Z,4.70
2023-04-09T10:52:13.013Z,4.90
2023-04-09T10:54:45.335Z,5.60
2023-04-09T10:57:17.103Z,6.40
2023-04-09T10:59:46.498Z,4.80
2023-04-09T11:02:31.259Z,4.60
2023-04-09T11:05:17.725Z,6.60
2023-04-09T11:07:49.022Z,5.00
2023-04-09T11:10:15.452Z,4.60
2023-04-09T11:12:42.356Z,4.70
2023-04-09T11:15:17.615Z,4.90
2023-04-09T11:17:45.868Z,6.90
2023-04-09T11:20:14.517Z,5.80
2023-04-09T11:22:40.940Z,6.20
2023-04-09T11:25:07.733Z,4.40
2023-04-09T11:27:38.356Z,4.00
2023-04-09T11:30:05.757Z,4.60
2023-04-09T11:32:33.077Z,4.60
2023-04-09T11:34:59.500Z,4.70
2023-04-09T11:37:26.155Z,6.60
2023-04-09T11:39:55.609Z,6.30
2023-04-09T11:42:25.139Z,4.60
2023-04-09T11:44:53.174Z,4.40
2023-04-09T11:47:20.507Z,3.50
2023-04-09T11:49:47.287Z,4.10
2023-04-09T11:52:15.926Z,4.30
2023-04-09T11:54:47.486Z,4.00
2023-04-09T11:57:13.829Z,4.80
2023-04-09T11:59:40.597Z,5.80
2023-04-09T12:02:07.549Z,4.20
2023-04-09T12:04:34.276Z,4.10
2023-04-09T12:07:00.908Z,4.10
2023-04-09T12:09:27.322Z,5.10
2023-04-09T12:11:53.630Z,3.80
2023-04-09T12:14:21.253Z,4.60
2023-04-09T12:16:51.502Z,5.30
2023-04-09T12:19:19.807Z,5.70
2023-04-09T12:21:55.139Z,6.30
2023-04-09T12:26:52.178Z,5.00
2023-04-09T12:29:20.003Z,5.90
2023-04-09T12:31:47.526Z,5.90
2023-04-09T12:34:13.892Z,6.00
2023-04-09T12:36:43.454Z,5.70
2023-04-09T12:39:10.082Z,5.00
2023-04-09T12:41:36.845Z,5.70
2023-04-09T12:44:04.350Z,3.90
2023-04-09T12:46:31.680Z,3.80
2023-04-09T12:48:58.024Z,4.60
2023-04-09T12:51:25.176Z,5.00
2023-04-09T12:53:51.878Z,5.00
2023-04-09T12:56:18.570Z,4.90
2023-04-09T12:58:44.988Z,4.50
2023-04-09T13:01:11.488Z,4.10
2023-04-09T13:03:40.534Z,4.00
2023-04-09T13:06:07.198Z,4.70
2023-04-09T13:08:33.575Z,5.30
2023-04-09T13:11:00.209Z,4.20
2023-04-09T13:13:28.052Z,4.70
2023-04-09T13:15:54.382Z,4.50
2023-04-09T13:18:21.259Z,4.90
2023-04-09T13:20:47.633Z,4.80
2023-04-09T13:23:13.953Z,5.10
2023-04-09T13:25:40.290Z,4.70
2023-04-09T13:28:06.773Z,4.10
2023-04-09T13:30:33.222Z,5.40
2023-04-09T13:33:00.215Z,4.70
2023-04-09T13:35:26.752Z,4.80
2023-04-09T13:37:54.097Z,4.60
2023-04-09T13:40:20.388Z,5.60
2023-04-09T13:42:46.784Z,4.70
2023-04-09T13:45:13.449Z,5.10
2023-04-09T13:47:40.522Z,3.90
2023-04-09T13:50:09.562Z,5.50
2023-04-09T13:52:35.878Z,5.30
2023-04-09T13:55:03.218Z,4.70
2023-04-09T13:57:29.556Z,5.20
2023-04-09T13:59:55.879Z,5.40
2023-04-09T14:02:22.990Z,5.00
2023-04-09T14:04:49.521Z,5.10
2023-04-09T14:07:16.101Z,5.90
2023-04-09T14:09:43.297Z,5.30
2023-04-09T14:12:10.088Z,4.60
2023-04-09T14:14:36.399Z,5.20
2023-04-09T14:17:02.678Z,4.60
2023-04-09T14:19:29.076Z,4.30
2023-04-09T14:21:55.594Z,4.00
2023-04-09T14:24:22.511Z,3.40
2023-04-09T14:26:50.744Z,4.60
2023-04-09T14:29:17.154Z,4.50
2023-04-09T14:31:43.716Z,4.90
2023-04-09T14:34:10.216Z,3.60
2023-04-09T14:36:36.532Z,4.40
2023-04-09T14:39:02.874Z,3.60
2023-04-09T14:41:29.305Z,3.90
2023-04-09T14:43:55.621Z,3.60
2023-04-09T14:46:21.997Z,3.10
2023-04-09T14:48:48.469Z,3.90
2023-04-09T14:51:15.279Z,4.00
2023-04-09T14:53:41.829Z,4.50
2023-04-09T14:56:08.302Z,3.50
2023-04-09T14:58:35.699Z,4.70
2023-04-09T15:01:03.548Z,6.30
2023-04-09T15:03:30.438Z,5.10
2023-04-09T15:05:58.619Z,7.00
2023-04-09T15:08:24.915Z,8.40
2023-04-09T15:10:51.400Z,6.00
2023-04-09T15:13:17.952Z,5.60
2023-04-09T15:15:44.654Z,4.30
2023-04-09T15:18:11.040Z,3.90
2023-04-09T15:20:42.730Z,3.80
2023-04-09T15:23:10.158Z,4.80
2023-04-09T15:25:37.046Z,4.00
2023-04-09T15:28:04.838Z,4.10
2023-04-09T15:30:31.291Z,3.80
2023-04-09T15:32:57.729Z,3.80
2023-04-09T15:35:28.535Z,4.30
2023-04-09T15:37:58.207Z,4.80
2023-04-09T15:40:24.609Z,4.40
2023-04-09T15:42:50.970Z,5.50
2023-04-09T15:45:17.494Z,5.70
2023-04-09T15:47:44.470Z,5.00
2023-04-09T15:50:11.113Z,5.60
2023-04-09T15:52:37.633Z,5.60
2023-04-09T15:55:04.872Z,5.00
2023-04-09T15:57:31.566Z,5.10
2023-04-09T15:59:58.320Z,5.20
2023-04-09T16:02:26.130Z,5.40
2023-04-09T16:04:52.636Z,5.40
2023-04-09T16:07:18.994Z,5.20
2023-04-09T16:09:46.011Z,5.40
2023-04-09T16:12:12.712Z,5.60
2023-04-09T16:14:39.752Z,6.00
2023-04-09T16:17:06.456Z,6.20
2023-04-09T16:19:32.923Z,5.70
2023-04-09T16:21:59.344Z,5.30
2023-04-09T16:24:26.391Z,4.70
2023-04-09T16:26:52.681Z,4.80
2023-04-09T16:29:19.065Z,6.10
2023-04-09T16:31:45.519Z,4.50
2023-04-09T16:34:11.863Z,4.20
2023-04-09T16:36:40.415Z,4.50
2023-04-09T16:39:07.134Z,4.50
2023-04-09T16:41:34.917Z,4.70
2023-04-09T16:44:03.187Z,5.10
2023-04-09T16:46:29.997Z,6.10
2023-04-09T16:48:56.646Z,6.70
2023-04-09T16:51:23.014Z,6.70
2023-04-09T16:53:49.776Z,5.90
2023-04-09T16:56:16.781Z,6.40
2023-04-09T16:58:43.994Z,7.10
2023-04-09T17:01:10.442Z,6.30
2023-04-09T17:03:37.497Z,7.00
2023-04-09T17:06:04.310Z,6.30
2023-04-09T17:08:30.689Z,5.30
2023-04-09T17:11:01.436Z,6.10
2023-04-09T17:13:29.191Z,5.80
2023-04-09T17:15:56.342Z,5.50
2023-04-09T17:18:23.383Z,7.10
2023-04-09T17:20:50.515Z,6.40
2023-04-09T17:23:17.016Z,5.80
2023-04-09T17:25:43.734Z,6.10
2023-04-09T17:28:10.271Z,5.50
2023-04-09T17:30:36.667Z,5.40
2023-04-09T17:33:03.103Z,4.60
2023-04-09T17:35:29.658Z,4.80
2023-04-09T17:37:56.245Z,5.20
2023-04-09T17:40:22.574Z,5.30
2023-04-09T17:42:49.261Z,5.30
2023-04-09T17:45:16.030Z,5.20
2023-04-09T17:47:42.607Z,5.50
2023-04-09T17:50:09.160Z,5.00
2023-04-09T17:52:39.337Z,5.20
2023-04-09T17:55:07.557Z,4.90
2023-04-09T17:57:35.131Z,5.00
2023-04-09T18:00:03.688Z,5.20
2023-04-09T18:02:31.644Z,5.80
2023-04-09T18:04:59.849Z,5.50
2023-04-09T18:07:32.502Z,5.60
2023-04-09T18:10:00.466Z,4.90
2023-04-09T18:12:27.350Z,5.70
2023-04-09T18:14:53.709Z,6.60
2023-04-09T18:17:20.154Z,6.30
2023-04-09T18:19:47.164Z,6.40
2023-04-09T18:22:13.572Z,6.50
2023-04-09T18:24:40.737Z,7.40
2023-04-09T18:27:07.122Z,5.60
2023-04-09T18:29:33.494Z,6.60
2023-04-09T18:32:00.227Z,6.70
2023-04-09T18:34:27.114Z,6.20
2023-04-09T18:36:54.203Z,5.80
2023-04-09T18:39:22.087Z,6.30
2023-04-09T18:41:48.589Z,5.40
2023-04-09T18:44:15.916Z,5.80
2023-04-09T18:46:42.729Z,6.20
2023-04-09T18:49:09.253Z,5.20
2023-04-09T18:51:35.663Z,6.20
2023-04-09T18:54:02.121Z,6.30
2023-04-09T18:56:28.689Z,6.40
2023-04-09T18:58:55.696Z,6.90
2023-04-09T19:01:22.395Z,6.10
2023-04-09T19:03:49.381Z,6.40
2023-04-09T19:06:18.469Z,6.40
2023-04-09T19:08:45.981Z,6.40
2023-04-09T19:11:13.031Z,6.80
2023-04-09T19:13:39.840Z,6.40
2023-04-09T19:16:08.505Z,6.30
2023-04-09T19:18:35.883Z,7.00
2023-04-09T19:21:02.742Z,6.90
2023-04-09T19:23:29.982Z,7.70
2023-04-09T19:25:56.742Z,6.80
2023-04-09T19:28:23.548Z,6.50
2023-04-09T19:30:51.849Z,7.50
2023-04-09T19:33:23.111Z,6.70
2023-04-09T19:35:50.616Z,7.70
2023-04-09T19:38:18.382Z,7.20
2023-04-09T19:40:45.608Z,8.50
2023-04-09T19:43:12.991Z,6.80
2023-04-09T19:45:42.109Z,7.60
2023-04-09T19:48:09.100Z,6.80
2023-04-09T19:50:42.755Z,7.50
2023-04-09T19:53:10.203Z,7.30
2023-04-09T19:55:36.910Z,7.30
2023-04-09T19:58:05.003Z,6.20
2023-04-09T20:00:32.966Z,7.90
2023-04-09T20:03:00.015Z,7.00
2023-04-09T20:05:27.196Z,6.90
2023-04-09T20:07:54.147Z,7.30
2023-04-09T20:10:20.532Z,7.40
2023-04-09T20:12:48.238Z,7.30
2023-04-09T20:15:16.736Z,7.10
2023-04-09T20:17:43.125Z,6.40
2023-04-09T20:20:11.387Z,7.00
2023-04-09T20:22:42.280Z,7.50
2023-04-09T20:25:12.197Z,7.90
2023-04-09T20:27:38.916Z,7.50
2023-04-09T20:30:06.441Z,7.40
2023-04-09T20:32:35.062Z,7.90
2023-04-09T20:35:01.410Z,8.40
2023-04-09T20:37:27.835Z,9.20
2023-04-09T20:39:54.187Z,9.30
2023-04-09T20:42:20.509Z,9.60
2023-04-09T20:44:46.835Z,9.70
2023-04-09T20:47:14.707Z,9.30
2023-04-09T20:49:42.348Z,8.70
2023-04-09T20:52:09.529Z,8.80
2023-04-09T20:54:36.016Z,8.40
2023-04-09T20:57:04.868Z,8.20
2023-04-09T20:59:32.686Z,9.00
2023-04-09T21:01:59.142Z,9.30
2023-04-09T21:04:25.714Z,8.70
2023-04-09T21:06:52.359Z,8.30
2023-04-09T21:09:18.714Z,8.50
2023-04-09T21:11:45.449Z,8.80
2023-04-09T21:14:13.841Z,8.60
2023-04-09T21:16:40.549Z,9.90
2023-04-09T21:19:06.960Z,8.60
2023-04-09T21:21:34.817Z,10.10
2023-04-09T21:24:01.226Z,10.30
2023-04-09T21:26:29.095Z,11.40
2023-04-09T21:29:01.000Z,11.00
2023-04-09T21:31:27.455Z,10.50
2023-04-09T21:33:53.859Z,10.10
2023-04-09T21:36:20.675Z,10.10
2023-04-09T21:38:47.075Z,10.00
2023-04-09T21:41:13.405Z,9.80
2023-04-09T21:43:39.759Z,9.00
2023-04-09T21:46:06.295Z,7.90
2023-04-09T21:48:32.826Z,10.30
2023-04-09T21:50:59.371Z,10.60
2023-04-09T21:53:26.407Z,9.70
2023-04-09T21:55:52.773Z,8.40
2023-04-09T21:58:19.074Z,10.50
2023-04-09T22:00:46.097Z,10.20
2023-04-09T22:03:12.710Z,11.20
2023-04-09T22:05:39.167Z,9.10
2023-04-09T22:08:06.571Z,10.60
2023-04-09T22:10:32.960Z,10.00
2023-04-09T22:12:59.277Z,8.20
2023-04-09T22:15:25.693Z,9.20
2023-04-09T22:17:52.144Z,9.50
2023-04-09T22:20:18.489Z,8.00
2023-04-09T22:22:45.208Z,9.50
2023-04-09T22:25:12.222Z,9.30
2023-04-09T22:27:38.699Z,9.70
2023-04-09T22:30:05.762Z,10.20
2023-04-09T22:32:32.716Z,9.40
2023-04-09T22:34:59.036Z,11.00
2023-04-09T22:37:25.341Z,10.10
2023-04-09T22:39:51.633Z,10.00
2023-04-09T22:42:18.155Z,10.30
2023-04-09T22:44:44.542Z,9.10
2023-04-09T22:47:11.162Z,10.50
2023-04-09T22:49:38.127Z,10.50
2023-04-09T22:52:05.069Z,11.00
2023-04-09T22:54:31.385Z,9.60
2023-04-09T22:56:57.788Z,9.60
2023-04-09T22:59:30.449Z,9.80
2023-04-09T23:02:05.602Z,9.40
2023-04-09T23:04:33.483Z,9.80
2023-04-09T23:07:00.214Z,8.90
2023-04-09T23:09:26.619Z,9.50
2023-04-09T23:11:52.916Z,8.80
2023-04-09T23:14:19.217Z,10.60
2023-04-09T23:16:45.688Z,10.10
2023-04-09T23:19:11.980Z,10.10
2023-04-09T23:21:38.306Z,8.80
2023-04-09T23:24:04.894Z,8.90
2023-04-09T23:26:32.081Z,8.60
2023-04-09T23:28:58.461Z,8.60
2023-04-09T23:31:25.049Z,8.80
2023-04-09T23:33:51.888Z,7.90
2023-04-09T23:36:18.434Z,8.90
2023-04-09T23:38:46.344Z,8.30
2023-04-09T23:41:16.004Z,9.40
2023-04-09T23:43:42.312Z,9.60
2023-04-09T23:46:08.733Z,9.60
2023-04-09T23:48:35.565Z,10.60
2023-04-09T23:51:01.911Z,10.80
2023-04-09T23:53:28.402Z,10.50
2023-04-09T23:55:54.762Z,11.40
2023-04-09T23:58:21.691Z,11.60
